createdAt,value
2018-04-13T00:00:36.095Z,45.17
2018-04-13T00:01:40.582Z,41.92
2018-04-13T00:02:44.680Z,41.45
2018-04-13T00:03:49.101Z,43.15
2018-04-13T00:04:53.430Z,39.85
2018-04-13T00:05:57.613Z,41.60
2018-04-13T00:07:01.722Z,40.67
2018-04-13T00:08:06.656Z,40.65
2018-04-13T00:09:11.135Z,39.53
2018-04-13T00:10:15.246Z,38.00
2018-04-13T00:11:19.348Z,39.58
2018-04-13T00:12:23.462Z,37.22
2018-04-13T00:13:29.019Z,37.88
2018-04-13T00:14:36.890Z,36.15
2018-04-13T00:15:42.974Z,37.30
2018-04-13T00:16:47.943Z,35.25
2018-04-13T00:17:52.088Z,34.15
2018-04-13T00:18:56.194Z,34.53
2018-04-13T00:20:00.336Z,34.05
2018-04-13T00:21:05.007Z,32.38
2018-04-13T00:22:09.110Z,33.50
2018-04-13T00:23:13.234Z,32.83
2018-04-13T00:24:18.685Z,33.92
2018-04-13T00:25:22.828Z,32.22
2018-04-13T00:26:26.941Z,34.00
2018-04-13T00:27:31.049Z,32.35
2018-04-13T00:28:35.876Z,30.80
2018-04-13T00:29:40.799Z,29.98
2018-04-13T00:30:44.941Z,30.35
2018-04-13T00:31:49.500Z,30.37
2018-04-13T00:32:54.150Z,28.25
2018-04-13T00:33:59.534Z,30.75
2018-04-13T00:35:04.186Z,29.87
2018-04-13T00:36:08.401Z,28.25
2018-04-13T00:37:13.261Z,27.65
2018-04-13T00:38:17.378Z,27.95
2018-04-13T00:39:22.378Z,27.80
2018-04-13T00:40:26.844Z,26.90
2018-04-13T00:41:31.735Z,26.52
2018-04-13T00:42:36.289Z,28.05
2018-04-13T00:43:41.418Z,25.10
2018-04-13T00:44:46.334Z,25.45
2018-04-13T00:45:51.228Z,25.80
2018-04-13T00:46:55.342Z,25.50
2018-04-13T00:47:59.525Z,25.35
2018-04-13T00:49:04.514Z,24.98
2018-04-13T00:50:08.629Z,24.77
2018-04-13T00:51:12.757Z,25.20
2018-04-13T00:52:16.834Z,25.25
2018-04-13T00:53:36.633Z,23.55
2018-04-13T00:54:41.011Z,24.65
2018-04-13T00:55:45.106Z,24.02
2018-04-13T00:56:49.236Z,24.23
2018-04-13T00:57:53.344Z,24.37
2018-04-13T00:58:57.472Z,23.25
2018-04-13T01:00:03.439Z,23.25
2018-04-13T01:01:09.298Z,24.40
2018-04-13T01:02:13.412Z,21.92
2018-04-13T01:03:17.542Z,21.77
2018-04-13T01:04:21.717Z,22.83
2018-04-13T01:05:25.949Z,23.12
2018-04-13T01:06:30.181Z,22.52
2018-04-13T01:07:37.272Z,21.62
2018-04-13T01:08:42.177Z,21.30
2018-04-13T01:09:47.244Z,20.30
2018-04-13T01:10:51.390Z,20.12
2018-04-13T01:11:55.502Z,21.37
2018-04-13T01:12:59.735Z,20.52
2018-04-13T01:14:04.566Z,20.70
2018-04-13T01:15:08.783Z,21.50
2018-04-13T01:16:12.941Z,20.62
2018-04-13T01:17:18.184Z,19.25
2018-04-13T01:18:23.159Z,20.25
2018-04-13T01:19:27.265Z,21.23
2018-04-13T01:20:31.390Z,18.55
2018-04-13T01:21:36.280Z,20.00
2018-04-13T01:22:40.402Z,19.87
2018-04-13T01:23:44.520Z,17.45
2018-04-13T01:24:48.908Z,17.45
2018-04-13T01:25:53.017Z,18.80
2018-04-13T01:26:57.977Z,17.27
2018-04-13T01:28:03.582Z,18.17
2018-04-13T01:29:07.713Z,18.12
2018-04-13T01:30:13.337Z,18.42
2018-04-13T01:31:18.550Z,17.40
2018-04-13T01:32:22.803Z,17.17
2018-04-13T01:33:27.741Z,17.33
2018-04-13T01:34:32.511Z,18.67
2018-04-13T01:35:37.292Z,19.58
2018-04-13T01:36:42.143Z,16.67
2018-04-13T01:37:46.262Z,19.15
2018-04-13T01:38:51.086Z,16.20
2018-04-13T01:39:55.986Z,17.45
2018-04-13T01:41:00.092Z,17.55
2018-04-13T01:42:05.830Z,16.30
2018-04-13T01:43:09.925Z,16.42
2018-04-13T01:44:14.035Z,14.75
2018-04-13T01:45:18.179Z,16.75
2018-04-13T01:46:22.286Z,15.50
2018-04-13T01:47:26.429Z,14.82
2018-04-13T01:48:30.528Z,14.93
2018-04-13T01:49:34.621Z,14.93
2018-04-13T01:50:38.836Z,15.00
2018-04-13T01:51:43.348Z,15.25
2018-04-13T01:52:47.478Z,14.18
2018-04-13T01:53:52.367Z,13.52
2018-04-13T01:54:56.440Z,14.30
2018-04-13T01:56:01.618Z,13.15
2018-04-13T01:57:06.502Z,15.70
2018-04-13T01:58:10.614Z,14.30
2018-04-13T01:59:14.750Z,14.40
2018-04-13T02:00:19.608Z,15.25
2018-04-13T02:01:23.705Z,14.27
2018-04-13T02:02:27.830Z,15.20
2018-04-13T02:03:31.954Z,14.30
2018-04-13T02:04:36.068Z,14.63
2018-04-13T02:05:40.199Z,13.25
2018-04-13T02:06:45.785Z,13.45
2018-04-13T02:07:50.187Z,12.95
2018-04-13T02:08:54.311Z,12.77
2018-04-13T02:09:58.485Z,13.88
2018-04-13T02:11:03.396Z,13.68
2018-04-13T02:12:07.556Z,12.05
2018-04-13T02:13:11.711Z,14.23
2018-04-13T02:14:16.360Z,13.57
2018-04-13T02:15:20.679Z,12.82
2018-04-13T02:16:24.683Z,11.55
2018-04-13T02:17:29.645Z,13.30
2018-04-13T02:18:33.699Z,13.13
2018-04-13T02:19:37.763Z,13.15
2018-04-13T02:20:41.750Z,12.27
2018-04-13T02:21:45.749Z,12.43
2018-04-13T02:22:49.878Z,12.93
2018-04-13T02:23:53.834Z,12.68
2018-04-13T02:24:58.084Z,12.27
2018-04-13T02:26:02.064Z,11.95
2018-04-13T02:27:07.065Z,11.43
2018-04-13T02:28:11.205Z,11.10
2018-04-13T02:29:15.174Z,10.70
2018-04-13T02:30:19.131Z,12.00
2018-04-13T02:31:23.169Z,11.73
2018-04-13T02:32:27.257Z,11.88
2018-04-13T02:33:32.027Z,12.15
2018-04-13T02:34:36.040Z,12.02
2018-04-13T02:35:40.031Z,11.57
2018-04-13T02:36:44.008Z,11.12
2018-04-13T02:37:48.254Z,11.77
2018-04-13T02:38:52.878Z,12.23
2018-04-13T02:39:56.972Z,11.02
2018-04-13T02:41:01.046Z,11.90
2018-04-13T02:42:05.826Z,10.68
2018-04-13T02:43:09.788Z,12.25
2018-04-13T02:44:13.772Z,11.00
2018-04-13T02:45:18.223Z,11.20
2018-04-13T02:46:23.029Z,10.50
2018-04-13T02:47:27.021Z,10.68
2018-04-13T02:48:31.029Z,11.20
2018-04-13T02:49:35.766Z,10.60
2018-04-13T02:50:40.525Z,10.55
2018-04-13T02:51:44.501Z,10.70
2018-04-13T02:52:48.505Z,11.30
2018-04-13T02:53:52.445Z,10.30
2018-04-13T02:54:56.371Z,10.77
2018-04-13T02:56:01.086Z,11.90
2018-04-13T02:57:06.966Z,11.18
2018-04-13T02:58:10.984Z,10.52
2018-04-13T02:59:15.298Z,11.32
2018-04-13T03:00:19.258Z,10.75
2018-04-13T03:01:23.549Z,9.77
2018-04-13T03:02:28.301Z,10.90
2018-04-13T03:03:32.266Z,10.30
2018-04-13T03:04:37.072Z,9.68
2018-04-13T03:05:41.049Z,9.63
2018-04-13T03:06:45.313Z,9.65
2018-04-13T03:07:49.279Z,9.80
2018-04-13T03:08:54.040Z,9.75
2018-04-13T03:09:58.028Z,10.00
2018-04-13T03:11:02.000Z,10.32
2018-04-13T03:12:07.342Z,10.25
2018-04-13T03:13:11.375Z,10.90
2018-04-13T03:14:15.362Z,10.50
2018-04-13T03:15:19.295Z,9.40
2018-04-13T03:16:23.807Z,10.38
2018-04-13T03:17:27.765Z,9.93
2018-04-13T03:18:31.726Z,10.45
2018-04-13T03:19:35.726Z,9.35
2018-04-13T03:20:39.669Z,9.70
2018-04-13T03:21:43.627Z,10.07
2018-04-13T03:22:48.430Z,9.75
2018-04-13T03:23:54.223Z,9.35
2018-04-13T03:24:58.217Z,9.55
2018-04-13T03:26:02.507Z,9.20
2018-04-13T03:27:06.816Z,10.40
2018-04-13T03:28:11.552Z,9.13
2018-04-13T03:29:15.532Z,9.52
2018-04-13T03:30:20.237Z,8.93
2018-04-13T03:31:24.255Z,9.48
2018-04-13T03:34:25.356Z,9.25
2018-04-13T03:35:29.535Z,9.60
2018-04-13T03:36:33.921Z,9.07
2018-04-13T03:37:37.914Z,8.55
2018-04-13T03:38:42.733Z,9.43
2018-04-13T03:39:47.790Z,8.60
2018-04-13T03:40:52.768Z,9.43
2018-04-13T03:41:57.657Z,9.88
2018-04-13T03:43:01.613Z,9.45
2018-04-13T03:44:06.169Z,10.18
2018-04-13T03:45:10.606Z,9.55
2018-04-13T03:46:15.368Z,9.80
2018-04-13T03:47:19.402Z,9.65
2018-04-13T03:48:24.378Z,9.00
2018-04-13T03:49:28.349Z,10.02
2018-04-13T03:50:33.837Z,8.80
2018-04-13T03:51:37.846Z,9.20
2018-04-13T03:52:41.910Z,9.43
2018-04-13T03:53:45.889Z,9.70
2018-04-13T03:54:50.203Z,8.50
2018-04-13T03:55:54.973Z,10.18
2018-04-13T03:56:58.971Z,10.45
2018-04-13T03:58:03.521Z,9.50
2018-04-13T03:59:08.350Z,10.95
2018-04-13T04:00:13.093Z,9.38
2018-04-13T04:01:17.851Z,8.85
2018-04-13T04:02:22.585Z,9.90
2018-04-13T04:03:29.059Z,8.95
2018-04-13T04:04:34.825Z,10.13
2018-04-13T04:05:39.709Z,8.80
2018-04-13T04:06:44.814Z,9.73
2018-04-13T04:07:48.978Z,9.15
2018-04-13T04:08:53.839Z,9.15
2018-04-13T04:09:58.526Z,8.80
2018-04-13T04:11:04.755Z,8.65
2018-04-13T04:12:09.696Z,8.68
2018-04-13T04:13:16.417Z,8.90
2018-04-13T04:14:22.538Z,8.75
2018-04-13T04:15:27.434Z,9.02
2018-04-13T04:16:32.460Z,9.40
2018-04-13T04:17:36.749Z,10.23
2018-04-13T04:18:42.003Z,8.57
2018-04-13T04:19:56.660Z,8.00
2018-04-13T04:23:16.487Z,8.15
2018-04-13T04:24:33.338Z,8.10
2018-04-13T04:25:43.451Z,9.00
2018-04-13T04:26:48.918Z,8.10
2018-04-13T04:27:53.434Z,8.85
2018-04-13T04:28:57.437Z,9.27
2018-04-13T04:30:03.920Z,9.02
2018-04-13T04:31:08.900Z,8.18
2018-04-13T04:32:13.435Z,8.57
2018-04-13T04:33:18.220Z,8.50
2018-04-13T04:34:23.234Z,8.93
2018-04-13T04:35:28.556Z,7.90
2018-04-13T04:36:33.240Z,8.27
2018-04-13T04:37:39.414Z,8.90
2018-04-13T04:38:45.056Z,8.15
2018-04-13T04:39:51.529Z,9.23
2018-04-13T04:40:56.548Z,9.18
2018-04-13T04:42:01.355Z,9.15
2018-04-13T04:43:06.885Z,7.30
2018-04-13T04:44:12.549Z,9.35
2018-04-13T04:45:18.642Z,8.73
2018-04-13T04:46:23.597Z,9.25
2018-04-13T04:47:30.101Z,9.27
2018-04-13T04:48:35.020Z,8.23
2018-04-13T04:49:39.600Z,8.88
2018-04-13T04:50:44.654Z,8.40
2018-04-13T04:51:49.476Z,8.23
2018-04-13T04:52:54.103Z,9.15
2018-04-13T04:54:00.390Z,8.10
2018-04-13T04:55:05.870Z,9.10
2018-04-13T04:56:10.847Z,7.50
2018-04-13T04:57:16.348Z,7.45
2018-04-13T04:58:21.272Z,8.30
2018-04-13T04:59:25.757Z,8.02
2018-04-13T05:00:30.951Z,8.73
2018-04-13T05:01:38.090Z,8.35
2018-04-13T05:02:43.590Z,7.75
2018-04-13T05:03:47.904Z,8.00
2018-04-13T05:04:52.638Z,7.87
2018-04-13T05:05:57.471Z,8.32
2018-04-13T05:07:01.465Z,8.45
2018-04-13T05:08:08.062Z,8.15
2018-04-13T05:09:12.969Z,7.97
2018-04-13T05:10:18.434Z,7.95
2018-04-13T05:11:23.324Z,8.25
2018-04-13T05:12:27.959Z,8.40
2018-04-13T05:13:34.848Z,7.57
2018-04-13T05:14:41.075Z,8.40
2018-04-13T05:15:45.991Z,9.00
2018-04-13T05:16:52.044Z,9.77
2018-04-13T05:17:56.913Z,8.60
2018-04-13T05:19:01.683Z,7.60
2018-04-13T05:20:07.445Z,8.05
2018-04-13T05:21:14.371Z,7.05
2018-04-13T05:22:19.062Z,7.30
2018-04-13T05:23:23.558Z,7.25
2018-04-13T05:24:28.334Z,7.37
2018-04-13T05:25:32.810Z,7.20
2018-04-13T05:26:38.588Z,7.75
2018-04-13T05:27:43.035Z,7.18
2018-04-13T05:28:48.189Z,8.02
2018-04-13T05:29:52.501Z,6.95
2018-04-13T05:30:56.730Z,7.30
2018-04-13T05:32:03.686Z,7.10
2018-04-13T05:33:09.866Z,7.78
2018-04-13T05:34:14.653Z,8.13
2018-04-13T05:35:19.522Z,8.30
2018-04-13T05:36:25.830Z,7.00
2018-04-13T05:37:30.609Z,8.80
2018-04-13T05:38:36.250Z,7.47
2018-04-13T05:39:41.036Z,7.62
2018-04-13T05:40:46.543Z,7.57
2018-04-13T05:41:50.526Z,7.50
2018-04-13T05:42:55.350Z,8.50
2018-04-13T05:44:01.525Z,8.13
2018-04-13T05:45:07.358Z,8.30
2018-04-13T05:46:12.584Z,7.43
2018-04-13T05:47:16.758Z,7.68
2018-04-13T05:48:21.680Z,7.78
2018-04-13T05:49:26.466Z,6.95
2018-04-13T05:50:32.049Z,7.85
2018-04-13T05:51:36.780Z,8.38
2018-04-13T05:52:43.148Z,7.85
2018-04-13T05:53:47.246Z,7.32
2018-04-13T05:54:53.074Z,7.85
2018-04-13T05:55:57.487Z,7.55
2018-04-13T05:57:01.754Z,8.63
2018-04-13T05:58:06.664Z,7.65
2018-04-13T05:59:10.738Z,8.00
2018-04-13T06:00:15.439Z,7.82
2018-04-13T06:01:20.806Z,8.07
2018-04-13T06:02:25.653Z,8.27
2018-04-13T06:03:32.760Z,8.45
2018-04-13T06:04:36.803Z,7.45
2018-04-13T06:05:41.856Z,7.53
2018-04-13T06:06:46.789Z,7.82
2018-04-13T06:07:50.875Z,8.05
2018-04-13T06:08:55.724Z,8.70
2018-04-13T06:10:00.449Z,7.80
2018-04-13T06:11:07.256Z,8.77
2018-04-13T06:12:13.133Z,8.18
2018-04-13T06:13:20.023Z,8.90
2018-04-13T06:14:24.042Z,8.30
2018-04-13T06:15:29.005Z,8.07
2018-04-13T06:16:33.786Z,8.23
2018-04-13T06:17:37.835Z,8.52
2018-04-13T06:18:42.886Z,8.50
2018-04-13T06:19:49.050Z,8.35
2018-04-13T06:20:54.039Z,7.62
2018-04-13T06:22:00.633Z,8.05
2018-04-13T06:23:08.690Z,8.07
2018-04-13T06:24:13.631Z,8.07
2018-04-13T06:25:18.407Z,7.50
2018-04-13T06:26:22.703Z,8.43
2018-04-13T06:27:30.443Z,8.50
2018-04-13T06:28:34.555Z,8.48
2018-04-13T06:29:39.911Z,7.97
2018-04-13T06:30:45.263Z,7.95
2018-04-13T06:31:52.322Z,8.52
2018-04-13T06:33:00.214Z,8.10
2018-04-13T06:34:06.969Z,8.90
2018-04-13T06:35:13.034Z,8.43
2018-04-13T06:36:18.905Z,8.07
2018-04-13T06:37:24.015Z,9.63
2018-04-13T06:38:28.882Z,8.43
2018-04-13T06:39:33.699Z,7.68
2018-04-13T06:40:37.782Z,7.93
2018-04-13T06:41:42.587Z,8.52
2018-04-13T06:42:47.440Z,8.30
2018-04-13T06:43:51.791Z,9.00
2018-04-13T06:44:58.738Z,8.88
2018-04-13T06:46:06.081Z,8.35
2018-04-13T06:47:11.351Z,8.90
2018-04-13T06:48:16.001Z,8.02
2018-04-13T06:49:20.589Z,8.70
2018-04-13T06:50:27.530Z,9.10
2018-04-13T06:51:31.908Z,9.00
2018-04-13T06:52:36.749Z,9.88
2018-04-13T06:53:41.760Z,9.25
2018-04-13T06:54:47.421Z,8.00
2018-04-13T06:55:52.728Z,9.00
2018-04-13T06:56:57.577Z,9.35
2018-04-13T06:58:05.507Z,8.50
2018-04-13T06:59:10.924Z,8.55
2018-04-13T07:00:16.818Z,8.45
2018-04-13T07:01:23.024Z,9.20
2018-04-13T07:02:29.050Z,8.52
2018-04-13T07:03:33.236Z,8.45
2018-04-13T07:04:38.143Z,9.00
2018-04-13T07:05:43.303Z,7.87
2018-04-13T07:06:50.095Z,9.18
2018-04-13T07:07:55.206Z,8.50
2018-04-13T07:09:01.001Z,8.43
2018-04-13T07:10:06.055Z,9.25
2018-04-13T07:11:10.740Z,9.40
2018-04-13T07:12:15.210Z,8.30
2018-04-13T07:13:20.892Z,9.00
2018-04-13T07:14:24.949Z,9.02
2018-04-13T07:15:31.119Z,9.70
2018-04-13T07:16:35.994Z,8.07
2018-04-13T07:17:40.067Z,8.82
2018-04-13T07:18:44.451Z,8.70
2018-04-13T07:19:48.836Z,8.48
2018-04-13T07:20:53.758Z,8.85
2018-04-13T07:21:58.602Z,7.47
2018-04-13T07:23:04.737Z,8.57
2018-04-13T07:24:10.006Z,9.57
2018-04-13T07:25:16.698Z,8.57
2018-04-13T07:26:21.566Z,9.60
2018-04-13T07:27:25.896Z,9.55
2018-04-13T07:28:29.947Z,8.68
2018-04-13T07:29:37.114Z,9.63
2018-04-13T07:30:42.123Z,9.10
2018-04-13T07:31:46.132Z,9.57
2018-04-13T07:32:51.077Z,9.98
2018-04-13T07:33:55.883Z,9.07
2018-04-13T07:35:02.929Z,9.10
2018-04-13T07:36:07.450Z,9.85
2018-04-13T07:37:12.792Z,9.65
2018-04-13T07:38:18.706Z,9.77
2018-04-13T07:39:25.098Z,9.73
2018-04-13T07:40:29.900Z,9.30
2018-04-13T07:41:35.589Z,10.05
2018-04-13T07:42:40.912Z,9.98
2018-04-13T07:43:46.462Z,9.98
2018-04-13T07:44:50.869Z,9.13
2018-04-13T07:45:56.380Z,9.32
2018-04-13T07:48:13.385Z,11.02
2018-04-13T07:49:18.271Z,9.90
2018-04-13T07:50:23.007Z,9.10
2018-04-13T07:51:27.178Z,10.55
2018-04-13T07:52:31.942Z,10.10
2018-04-13T07:53:36.298Z,10.65
2018-04-13T07:54:40.646Z,9.50
2018-04-13T07:55:44.661Z,9.70
2018-04-13T07:56:51.481Z,8.95
2018-04-13T07:57:55.921Z,9.60
2018-04-13T07:58:59.998Z,9.90
2018-04-13T08:00:04.887Z,8.85
2018-04-13T08:01:09.710Z,10.55
2018-04-13T08:02:14.132Z,10.45
2018-04-13T08:03:19.160Z,9.48
2018-04-13T08:04:23.317Z,10.30
2018-04-13T08:05:28.140Z,9.45
2018-04-13T08:06:33.611Z,12.25
2018-04-13T08:07:37.915Z,11.00
2018-04-13T08:08:42.239Z,10.32
2018-04-13T08:09:46.718Z,10.77
2018-04-13T08:10:50.781Z,11.80
2018-04-13T08:11:55.570Z,9.60
2018-04-13T08:12:59.932Z,9.98
2018-04-13T08:14:05.231Z,10.65
2018-04-13T08:15:09.280Z,11.52
2018-04-13T08:16:14.266Z,9.77
2018-04-13T08:17:19.807Z,10.23
2018-04-13T08:18:26.100Z,10.68
2018-04-13T08:19:30.834Z,11.98
2018-04-13T08:20:34.949Z,10.30
2018-04-13T08:21:39.976Z,11.05
2018-04-13T08:22:44.928Z,11.12
2018-04-13T08:23:49.761Z,11.90
2018-04-13T08:24:55.400Z,11.23
2018-04-13T08:26:03.601Z,13.15
2018-04-13T08:27:07.739Z,11.25
2018-04-13T08:28:14.689Z,11.12
2018-04-13T08:29:19.062Z,11.10
2018-04-13T08:30:24.481Z,13.15
2018-04-13T08:31:29.149Z,11.90
2018-04-13T08:32:33.226Z,12.40
2018-04-13T08:33:38.929Z,11.88
2018-04-13T08:34:43.880Z,11.90
2018-04-13T08:35:48.714Z,13.68
2018-04-13T08:36:54.358Z,10.95
2018-04-13T08:37:59.204Z,12.05
2018-04-13T08:39:05.292Z,12.75
2018-04-13T08:40:09.347Z,12.25
2018-04-13T08:41:13.383Z,12.68
2018-04-13T08:42:17.811Z,11.75
2018-04-13T08:43:21.986Z,13.20
2018-04-13T08:44:26.919Z,13.60
2018-04-13T08:45:31.022Z,13.65
2018-04-13T08:46:35.336Z,12.13
2018-04-13T08:47:39.349Z,12.75
2018-04-13T08:48:43.386Z,13.77
2018-04-13T08:49:47.430Z,14.07
2018-04-13T08:50:52.257Z,13.50
2018-04-13T08:51:56.815Z,14.52
2018-04-13T08:53:01.886Z,15.73
2018-04-13T08:54:06.937Z,14.57
2018-04-13T08:55:10.967Z,13.23
2018-04-13T08:56:15.008Z,15.82
2018-04-13T08:57:18.998Z,15.05
2018-04-13T08:58:26.414Z,12.55
2018-04-13T08:59:31.806Z,15.52
2018-04-13T09:00:37.480Z,14.98
2018-04-13T09:01:42.380Z,14.23
2018-04-13T09:02:47.335Z,14.35
2018-04-13T09:03:52.630Z,15.10
2018-04-13T09:04:57.248Z,15.77
2018-04-13T09:06:01.334Z,15.02
2018-04-13T09:07:07.375Z,15.35
2018-04-13T09:08:12.364Z,15.68
2018-04-13T09:09:17.600Z,16.30
2018-04-13T09:10:23.303Z,15.05
2018-04-13T09:11:28.490Z,16.45
2018-04-13T09:12:33.203Z,15.43
2018-04-13T09:13:37.331Z,15.98
2018-04-13T09:14:41.609Z,15.85
2018-04-13T09:17:05.919Z,16.77
2018-04-13T09:18:09.966Z,17.37
2018-04-13T09:19:15.598Z,17.30
2018-04-13T09:20:19.702Z,17.30
2018-04-13T09:21:31.406Z,18.15
2018-04-13T09:22:36.469Z,18.55
2018-04-13T09:23:40.522Z,19.00
2018-04-13T09:24:44.613Z,18.75
2018-04-13T09:25:48.710Z,17.95
2018-04-13T09:26:53.802Z,18.90
2018-04-13T09:27:57.848Z,17.55
2018-04-13T09:29:03.788Z,18.27
2018-04-13T09:30:08.650Z,18.00
2018-04-13T09:31:14.382Z,18.23
2018-04-13T09:32:18.461Z,19.62
2018-04-13T09:33:23.365Z,17.95
2018-04-13T09:34:28.151Z,20.65
2018-04-13T09:35:33.996Z,21.20
2018-04-13T09:36:38.049Z,19.70
2018-04-13T09:37:42.298Z,19.27
2018-04-13T09:38:46.353Z,22.00
2018-04-13T09:39:51.813Z,22.20
2018-04-13T09:40:58.774Z,21.52
2018-04-13T09:42:03.538Z,21.58
2018-04-13T09:43:08.628Z,20.65
2018-04-13T09:44:12.682Z,21.67
2018-04-13T09:45:17.744Z,21.83
2018-04-13T09:46:22.278Z,22.48
2018-04-13T09:47:28.422Z,23.30
2018-04-13T09:48:32.588Z,22.30
2018-04-13T09:49:38.428Z,22.55
2018-04-13T09:50:42.686Z,22.42
2018-04-13T09:51:46.707Z,23.90
2018-04-13T09:52:50.714Z,23.95
2018-04-13T09:53:55.982Z,21.58
2018-04-13T09:55:00.615Z,24.15
2018-04-13T09:56:05.408Z,23.38
2018-04-13T09:57:11.061Z,24.05
2018-04-13T09:58:17.209Z,23.50
2018-04-13T09:59:21.884Z,25.15
2018-04-13T10:00:30.602Z,23.75
2018-04-13T10:01:38.804Z,22.70
2018-04-13T10:02:44.414Z,23.92
2018-04-13T10:03:52.998Z,26.58
2018-04-13T10:04:59.978Z,25.45
2018-04-13T10:06:05.831Z,25.48
2018-04-13T10:07:09.962Z,26.67
2018-04-13T10:08:14.001Z,23.75
2018-04-13T10:09:18.061Z,25.60
2018-04-13T10:10:23.270Z,24.45
2018-04-13T10:11:27.316Z,26.42
2018-04-13T10:12:33.035Z,25.77
2018-04-13T10:13:38.251Z,28.45
2018-04-13T10:14:42.592Z,27.58
2018-04-13T10:15:46.651Z,25.65
2018-04-13T10:16:51.326Z,27.20
2018-04-13T10:17:55.442Z,26.83
2018-04-13T10:18:59.810Z,24.63
2018-04-13T10:20:05.707Z,26.52
2018-04-13T10:21:09.836Z,26.10
2018-04-13T10:22:14.714Z,24.52
2018-04-13T10:23:18.983Z,27.52
2018-04-13T10:24:24.396Z,27.48
2018-04-13T10:25:29.216Z,26.10
2018-04-13T10:26:33.794Z,25.33
2018-04-13T10:27:38.757Z,26.55
2018-04-13T10:28:44.478Z,28.50
2018-04-13T10:29:49.594Z,27.70
2018-04-13T10:30:54.071Z,26.60
2018-04-13T10:32:01.725Z,24.95
2018-04-13T10:33:08.662Z,27.05
2018-04-13T10:34:13.613Z,26.50
2018-04-13T10:35:18.394Z,26.35
2018-04-13T10:36:23.634Z,26.90
2018-04-13T10:37:27.721Z,26.70
2018-04-13T10:38:34.102Z,25.92
2018-04-13T10:39:38.198Z,26.65
2018-04-13T10:40:43.417Z,25.65
2018-04-13T10:41:50.121Z,25.17
2018-04-13T10:43:57.321Z,26.85
2018-04-13T10:45:01.401Z,26.60
2018-04-13T10:46:07.931Z,25.85
2018-04-13T10:47:13.796Z,26.10
2018-04-13T10:48:18.865Z,28.08
2018-04-13T10:49:24.002Z,24.55
2018-04-13T10:50:30.015Z,25.98
2018-04-13T10:51:36.549Z,25.95
2018-04-13T10:52:41.420Z,27.33
2018-04-13T10:53:47.299Z,27.98
2018-04-13T10:54:53.027Z,26.55
2018-04-13T10:55:58.343Z,26.10
2018-04-13T10:57:04.747Z,26.85
2018-04-13T10:58:09.406Z,26.48
2018-04-13T10:59:14.086Z,25.42
2018-04-13T11:00:19.670Z,24.92
2018-04-13T11:01:24.615Z,26.35
2018-04-13T11:02:29.477Z,26.50
2018-04-13T11:03:35.418Z,29.08
2018-04-13T11:04:40.219Z,26.12
2018-04-13T11:05:44.213Z,26.98
2018-04-13T11:06:49.669Z,25.95
2018-04-13T11:07:54.520Z,25.90
2018-04-13T11:08:58.597Z,26.48
2018-04-13T11:10:03.461Z,25.10
2018-04-13T11:11:08.561Z,28.17
2018-04-13T11:12:12.721Z,25.58
2018-04-13T11:13:18.533Z,25.92
2018-04-13T11:14:24.508Z,24.73
2018-04-13T11:15:30.451Z,24.98
2018-04-13T11:16:34.524Z,24.33
2018-04-13T11:17:39.202Z,24.10
2018-04-13T11:18:44.319Z,25.50
2018-04-13T11:19:49.174Z,27.05
2018-04-13T11:20:53.195Z,27.27
2018-04-13T11:21:57.881Z,24.58
2018-04-13T11:23:02.915Z,24.60
2018-04-13T11:24:10.415Z,25.90
2018-04-13T11:25:15.131Z,25.30
2018-04-13T11:26:21.201Z,23.23
2018-04-13T11:27:26.544Z,27.20
2018-04-13T11:28:33.928Z,24.50
2018-04-13T11:29:39.486Z,25.75
2018-04-13T11:30:44.212Z,23.83
2018-04-13T11:31:49.866Z,24.00
2018-04-13T11:32:54.701Z,23.87
2018-04-13T11:34:03.174Z,24.20
2018-04-13T11:35:10.264Z,24.75
2018-04-13T11:36:20.254Z,23.02
2018-04-13T11:37:24.664Z,23.35
2018-04-13T11:39:48.201Z,22.98
2018-04-13T11:40:55.173Z,24.25
2018-04-13T11:42:00.915Z,22.92
2018-04-13T11:43:07.048Z,22.73
2018-04-13T11:44:12.894Z,21.73
2018-04-13T11:45:18.091Z,22.75
2018-04-13T11:46:22.511Z,21.58
2018-04-13T11:47:28.692Z,21.80
2018-04-13T11:48:33.447Z,22.87
2018-04-13T11:49:40.291Z,21.52
2018-04-13T11:50:47.562Z,22.90
2018-04-13T11:51:53.446Z,22.23
2018-04-13T11:52:59.996Z,20.58
2018-04-13T11:54:05.731Z,19.80
2018-04-13T11:55:10.708Z,21.23
2018-04-13T11:56:15.742Z,22.15
2018-04-13T11:57:20.533Z,21.15
2018-04-13T11:58:25.651Z,21.95
2018-04-13T11:59:31.759Z,21.05
2018-04-13T12:00:35.844Z,21.67
2018-04-13T12:01:41.469Z,20.92
2018-04-13T12:02:47.542Z,20.40
2018-04-13T12:03:53.613Z,21.15
2018-04-13T12:04:58.587Z,18.77
2018-04-13T12:06:04.435Z,20.73
2018-04-13T12:07:09.446Z,20.85
2018-04-13T12:08:15.659Z,19.37
2018-04-13T12:09:21.699Z,19.73
2018-04-13T12:10:28.668Z,20.85
2018-04-13T12:11:35.319Z,21.35
2018-04-13T12:12:39.590Z,20.37
2018-04-13T12:13:43.988Z,18.62
2018-04-13T12:14:50.161Z,21.70
2018-04-13T12:15:56.307Z,19.33
2018-04-13T12:17:00.369Z,20.17
2018-04-13T12:18:05.101Z,18.55
2018-04-13T12:19:09.440Z,19.92
2018-04-13T12:20:15.625Z,18.12
2018-04-13T12:21:22.476Z,18.40
2018-04-13T12:22:28.328Z,17.85
2018-04-13T12:23:32.398Z,18.33
2018-04-13T12:24:39.248Z,18.05
2018-04-13T12:25:44.417Z,16.87
2018-04-13T12:26:48.474Z,18.17
2018-04-13T12:27:53.401Z,18.90
2018-04-13T12:28:57.487Z,17.55
2018-04-13T12:30:03.688Z,18.02
2018-04-13T12:31:08.683Z,17.62
2018-04-13T12:32:14.598Z,17.40
2018-04-13T12:33:18.598Z,16.08
2018-04-13T12:34:23.391Z,17.67
2018-04-13T12:35:28.276Z,18.40
2018-04-13T12:36:33.563Z,18.90
2018-04-13T12:37:37.570Z,17.20
2018-04-13T12:38:42.351Z,17.33
2018-04-13T12:39:46.625Z,17.80
2018-04-13T12:40:52.516Z,15.95
2018-04-13T12:41:59.812Z,16.55
2018-04-13T12:43:05.180Z,15.75
2018-04-13T12:44:09.612Z,16.90
2018-04-13T12:45:15.488Z,15.63
2018-04-13T12:46:23.484Z,16.85
2018-04-13T12:47:28.316Z,15.60
2018-04-13T12:48:32.669Z,15.45
2018-04-13T12:49:37.329Z,15.50
2018-04-13T12:50:44.146Z,15.50
2018-04-13T12:51:49.583Z,17.35
2018-04-13T12:52:55.791Z,14.57
2018-04-13T12:54:00.907Z,14.98
2018-04-13T12:55:06.253Z,15.93
2018-04-13T12:56:11.455Z,15.00
2018-04-13T12:57:18.062Z,13.10
2018-04-13T12:58:24.136Z,15.20
2018-04-13T12:59:29.075Z,16.52
2018-04-13T13:00:33.209Z,15.68
2018-04-13T13:01:37.294Z,15.45
2018-04-13T13:02:42.060Z,15.40
2018-04-13T13:03:46.752Z,14.32
2018-04-13T13:04:52.684Z,14.07
2018-04-13T13:05:59.444Z,14.70
2018-04-13T13:07:08.728Z,14.00
2018-04-13T13:08:15.337Z,13.95
2018-04-13T13:09:20.742Z,13.65
2018-04-13T13:10:25.631Z,13.40
2018-04-13T13:11:31.542Z,13.75
2018-04-13T13:12:35.618Z,14.25
2018-04-13T13:13:41.009Z,13.23
2018-04-13T13:14:48.916Z,13.30
2018-04-13T13:15:53.174Z,13.98
2018-04-13T13:16:58.116Z,13.15
2018-04-13T13:18:03.600Z,14.50
2018-04-13T13:19:10.021Z,13.35
2018-04-13T13:20:15.785Z,13.65
2018-04-13T13:21:22.518Z,12.68
2018-04-13T13:24:33.635Z,11.70
2018-04-13T13:25:41.187Z,11.52
2018-04-13T13:26:47.461Z,11.68
2018-04-13T13:27:52.263Z,11.90
2018-04-13T13:28:56.979Z,12.00
2018-04-13T13:30:02.321Z,12.68
2018-04-13T13:31:06.573Z,10.63
2018-04-13T13:32:11.542Z,11.40
2018-04-13T13:33:15.854Z,12.18
2018-04-13T13:34:20.168Z,11.98
2018-04-13T13:35:25.931Z,11.80
2018-04-13T13:36:31.140Z,11.38
2018-04-13T13:37:35.829Z,9.90
2018-04-13T13:38:40.207Z,10.90
2018-04-13T13:39:45.326Z,11.07
2018-04-13T13:40:51.041Z,10.45
2018-04-13T13:42:00.085Z,10.43
2018-04-13T13:43:07.606Z,10.80
2018-04-13T13:44:12.484Z,9.88
2018-04-13T13:45:17.206Z,10.70
2018-04-13T13:46:22.118Z,11.05
2018-04-13T13:47:29.490Z,9.95
2018-04-13T13:48:35.582Z,9.60
2018-04-13T13:49:40.441Z,9.73
2018-04-13T13:50:45.498Z,10.77
2018-04-13T13:51:51.700Z,9.90
2018-04-13T13:53:05.718Z,10.15
2018-04-13T13:54:09.820Z,11.15
2018-04-13T13:55:15.696Z,9.52
2018-04-13T13:56:21.117Z,9.85
2018-04-13T13:57:25.136Z,9.98
2018-04-13T13:58:29.615Z,10.80
2018-04-13T13:59:33.988Z,10.13
2018-04-13T14:00:38.661Z,9.80
2018-04-13T14:01:42.739Z,9.90
2018-04-13T14:02:47.254Z,9.70
2018-04-13T14:03:52.677Z,9.50
2018-04-13T14:04:57.337Z,8.50
2018-04-13T14:06:02.291Z,9.93
2018-04-13T14:07:09.170Z,9.45
2018-04-13T14:08:14.095Z,8.90
2018-04-13T14:09:19.112Z,8.48
2018-04-13T14:10:26.201Z,8.90
2018-04-13T14:11:30.494Z,9.85
2018-04-13T14:12:34.579Z,9.02
2018-04-13T14:13:39.462Z,8.25
2018-04-13T14:14:48.286Z,9.13
2018-04-13T14:15:53.557Z,9.43
2018-04-13T14:16:58.362Z,8.13
2018-04-13T14:18:03.212Z,7.40
2018-04-13T14:19:08.236Z,8.65